createdAt,value
2023-02-09T00:01:31.873Z,103216.38
2023-02-09T00:04:02.569Z,103211.44
2023-02-09T00:06:30.238Z,103204.59
2023-02-09T00:08:59.116Z,103191.88
2023-02-09T00:11:49.818Z,103192.22
2023-02-09T00:14:21.739Z,103198.31
2023-02-09T00:16:53.431Z,103196.94
2023-02-09T00:19:21.490Z,103191.78
2023-02-09T00:21:49.040Z,103191.16
2023-02-09T00:24:16.353Z,103200.09
2023-02-09T00:26:44.131Z,103190.72
2023-02-09T00:29:11.985Z,103189.88
2023-02-09T00:31:39.889Z,103177.88
2023-02-09T00:34:07.663Z,103163.38
2023-02-09T00:36:35.153Z,103168.75
2023-02-09T00:39:02.200Z,103174.31
2023-02-09T00:41:47.589Z,103170.13
2023-02-09T00:44:14.523Z,103158.97
2023-02-09T00:46:41.555Z,103164.22
2023-02-09T00:49:08.394Z,103160.03
2023-02-09T00:51:35.676Z,103159.19
2023-02-09T00:54:03.512Z,103158.56
2023-02-09T00:56:30.414Z,103163.81
2023-02-09T00:58:57.419Z,103166.75
2023-02-09T01:01:25.284Z,103160.84
2023-02-09T01:03:53.355Z,103152.25
2023-02-09T01:06:20.958Z,103161.06
2023-02-09T01:08:48.520Z,103160.31
2023-02-09T01:11:16.020Z,103149.94
2023-02-09T01:13:44.935Z,103151.81
2023-02-09T01:16:16.822Z,103148.34
2023-02-09T01:18:45.011Z,103149.50
2023-02-09T01:21:19.799Z,103152.22
2023-02-09T01:23:48.593Z,103145.28
2023-02-09T01:26:19.170Z,103149.91
2023-02-09T01:28:51.229Z,103143.81
2023-02-09T01:31:32.594Z,103136.16
2023-02-09T01:34:02.351Z,103131.09
2023-02-09T01:36:31.985Z,103133.00
2023-02-09T01:39:01.336Z,103122.69
2023-02-09T01:41:28.958Z,103124.69
2023-02-09T01:44:07.716Z,103111.78
2023-02-09T01:46:37.429Z,103111.97
2023-02-09T01:49:20.150Z,103104.41
2023-02-09T01:52:01.116Z,103093.25
2023-02-09T01:54:46.495Z,103103.63
2023-02-09T01:57:19.260Z,103102.16
2023-02-09T01:59:53.048Z,103095.34
2023-02-09T02:02:21.964Z,103091.88
2023-02-09T02:04:50.247Z,103094.50
2023-02-09T02:07:41.003Z,103086.63
2023-02-09T02:10:08.677Z,103081.59
2023-02-09T02:12:37.062Z,103076.44
2023-02-09T02:15:04.993Z,103070.44
2023-02-09T02:18:12.296Z,103059.13
2023-02-09T02:21:08.333Z,103066.34
2023-02-09T02:24:19.299Z,103064.88
2023-02-09T02:26:56.521Z,103063.41
2023-02-09T02:30:02.859Z,103068.53
2023-02-09T02:32:39.530Z,103052.16
2023-02-09T02:35:34.687Z,103053.09
2023-02-09T02:38:36.373Z,103052.28
2023-02-09T02:41:26.659Z,103046.38
2023-02-09T02:44:13.584Z,103045.66
2023-02-09T02:46:47.255Z,103033.59
2023-02-09T02:49:53.407Z,103038.63
2023-02-09T02:52:20.694Z,103035.38
2023-02-09T02:55:15.730Z,103031.69
2023-02-09T02:57:49.351Z,103026.56
2023-02-09T03:00:30.086Z,103021.50
2023-02-09T03:03:03.890Z,103024.13
2023-02-09T03:05:32.160Z,103022.56
2023-02-09T03:07:59.220Z,103018.16
2023-02-09T03:10:32.821Z,103028.44
2023-02-09T03:13:18.752Z,103019.63
2023-02-09T03:16:06.315Z,103011.13
2023-02-09T03:19:01.016Z,103012.81
2023-02-09T03:22:13.517Z,103014.59
2023-02-09T03:25:05.753Z,103015.00
2023-02-09T03:27:40.600Z,103023.59
2023-02-09T03:30:12.053Z,103019.28
2023-02-09T03:32:41.098Z,103006.19
2023-02-09T03:35:12.010Z,103014.06
2023-02-09T03:37:38.931Z,103003.47
2023-02-09T03:40:06.775Z,103000.94
2023-02-09T03:42:33.730Z,102988.03
2023-02-09T03:45:01.177Z,102985.31
2023-02-09T03:47:28.215Z,102992.34
2023-02-09T03:49:55.189Z,102987.09
2023-02-09T03:52:22.120Z,102988.88
2023-02-09T03:54:49.086Z,102981.94
2023-02-09T03:57:16.144Z,102989.06
2023-02-09T03:59:43.224Z,102982.25
2023-02-09T04:02:10.950Z,102997.16
2023-02-09T04:04:38.187Z,102980.78
2023-02-09T04:07:05.264Z,102981.81
2023-02-09T04:09:32.541Z,102987.91
2023-02-09T04:11:59.532Z,102982.75
2023-02-09T04:14:26.481Z,102972.47
2023-02-09T04:16:53.380Z,102985.69
2023-02-09T04:19:20.390Z,102975.31
2023-02-09T04:21:47.463Z,102978.88
2023-02-09T04:24:15.215Z,102971.09
2023-02-09T04:26:42.252Z,102972.88
2023-02-09T04:29:09.174Z,102970.38
2023-02-09T04:31:36.160Z,102965.22
2023-02-09T04:34:03.231Z,102963.66
2023-02-09T04:36:30.463Z,102963.09
2023-02-09T04:38:57.418Z,102971.06
2023-02-09T04:41:24.444Z,102975.38
2023-02-09T04:43:51.538Z,102981.47
2023-02-09T04:46:19.515Z,102973.78
2023-02-09T04:48:46.822Z,102968.56
2023-02-09T04:51:14.399Z,102956.47
2023-02-09T04:53:41.574Z,102966.84
2023-02-09T04:56:10.334Z,102957.28
2023-02-09T04:58:56.157Z,102962.53
2023-02-09T05:01:25.015Z,102963.47
2023-02-09T05:03:52.586Z,102954.13
2023-02-09T05:06:19.812Z,102952.34
2023-02-09T05:08:47.145Z,102951.53
2023-02-09T05:11:14.827Z,102951.53
2023-02-09T05:13:42.528Z,102959.28
2023-02-09T05:16:14.717Z,102958.25
2023-02-09T05:18:41.715Z,102947.13
2023-02-09T05:21:08.838Z,102960.75
2023-02-09T05:23:36.148Z,102958.25
2023-02-09T05:26:03.068Z,102948.69
2023-02-09T05:28:30.334Z,102947.75
2023-02-09T05:30:57.623Z,102943.25
2023-02-09T05:33:26.232Z,102938.00
2023-02-09T05:35:55.654Z,102940.56
2023-02-09T05:38:22.848Z,102931.00
2023-02-09T05:40:50.717Z,102930.00
2023-02-09T05:43:18.299Z,102937.00
2023-02-09T05:45:46.520Z,102943.00
2023-02-09T05:48:13.611Z,102933.34
2023-02-09T05:50:40.516Z,102945.31
2023-02-09T05:53:08.737Z,102948.97
2023-02-09T05:55:35.880Z,102949.69
2023-02-09T05:58:02.903Z,102944.38
2023-02-09T06:00:30.123Z,102952.22
2023-02-09T06:02:58.579Z,102941.94
2023-02-09T06:05:26.778Z,102951.28
2023-02-09T06:07:54.009Z,102955.78
2023-02-09T06:10:21.191Z,102960.00
2023-02-09T06:12:48.532Z,102952.84
2023-02-09T06:15:18.899Z,102957.38
2023-02-09T06:17:46.400Z,102959.03
2023-02-09T06:20:13.421Z,102951.19
2023-02-09T06:22:40.320Z,102945.94
2023-02-09T06:25:07.839Z,102943.41
2023-02-09T06:27:34.659Z,102952.13
2023-02-09T06:30:01.709Z,102959.88
2023-02-09T06:32:28.617Z,102949.94
2023-02-09T06:34:55.581Z,102954.22
2023-02-09T06:37:22.799Z,102950.66
2023-02-09T06:39:49.826Z,102939.44
2023-02-09T06:42:16.898Z,102946.16
2023-02-09T06:44:44.048Z,102944.28
2023-02-09T06:47:11.000Z,102949.53
2023-02-09T06:49:38.005Z,102951.00
2023-02-09T06:52:05.518Z,102945.44
2023-02-09T06:54:32.751Z,102957.50
2023-02-09T06:57:00.093Z,102954.69
2023-02-09T06:59:26.989Z,102955.41
2023-02-09T07:01:55.137Z,102950.19
2023-02-09T07:04:22.480Z,102951.66
2023-02-09T07:06:49.835Z,102944.72
2023-02-09T07:09:16.941Z,102950.50
2023-02-09T07:11:43.978Z,102953.84
2023-02-09T07:14:11.020Z,102959.53
2023-02-09T07:16:38.051Z,102962.88
2023-02-09T07:19:05.105Z,102954.69
2023-02-09T07:21:32.108Z,102953.34
2023-02-09T07:23:59.147Z,102959.09
2023-02-09T07:26:26.184Z,102944.94
2023-02-09T07:28:53.286Z,102949.66
2023-02-09T07:31:20.444Z,102947.28
2023-02-09T07:33:47.815Z,102949.25
2023-02-09T07:36:16.495Z,102953.00
2023-02-09T07:38:44.321Z,102943.53
2023-02-09T07:41:17.084Z,102946.66
2023-02-09T07:43:44.524Z,102950.59
2023-02-09T07:46:15.095Z,102952.88
2023-02-09T07:48:42.271Z,102938.16
2023-02-09T07:51:19.881Z,102951.88
2023-02-09T07:53:47.774Z,102933.88
2023-02-09T07:56:14.666Z,102940.06
2023-02-09T07:58:41.730Z,102939.25
2023-02-09T08:01:11.695Z,102937.69
2023-02-09T08:03:41.470Z,102940.78
2023-02-09T08:06:42.797Z,102936.53
2023-02-09T08:09:12.765Z,102939.56
2023-02-09T08:11:49.238Z,102929.31
2023-02-09T08:14:36.152Z,102932.28
2023-02-09T08:17:20.406Z,102920.09
2023-02-09T08:20:01.139Z,102912.22
2023-02-09T08:22:33.039Z,102925.38
2023-02-09T08:25:01.660Z,102927.13
2023-02-09T08:27:29.586Z,102924.41
2023-02-09T08:29:58.761Z,102932.50
2023-02-09T08:32:25.824Z,102920.94
2023-02-09T08:34:53.122Z,102915.03
2023-02-09T08:37:20.112Z,102908.44
2023-02-09T08:39:47.170Z,102897.03
2023-02-09T08:42:14.226Z,102899.16
2023-02-09T08:44:41.477Z,102896.44
2023-02-09T08:47:08.725Z,102901.88
2023-02-09T08:49:36.239Z,102899.97
2023-02-09T08:52:03.359Z,102889.50
2023-02-09T08:54:30.518Z,102899.69
2023-02-09T08:56:57.550Z,102894.41
2023-02-09T08:59:24.605Z,102892.44
2023-02-09T09:01:51.579Z,102896.25
2023-02-09T09:04:18.485Z,102887.25
2023-02-09T09:06:46.198Z,102892.47
2023-02-09T09:09:14.028Z,102895.56
2023-02-09T09:11:41.315Z,102887.44
2023-02-09T09:14:08.322Z,102892.81
2023-02-09T09:16:35.232Z,102889.59
2023-02-09T09:19:04.614Z,102887.97
2023-02-09T09:21:31.744Z,102896.13
2023-02-09T09:23:58.696Z,102895.00
2023-02-09T09:26:25.581Z,102880.22
2023-02-09T09:28:52.660Z,102879.53
2023-02-09T09:31:20.464Z,102874.66
2023-02-09T09:33:47.833Z,102879.50
2023-02-09T09:36:15.087Z,102872.78
2023-02-09T09:38:42.555Z,102872.81
2023-02-09T09:41:39.088Z,102871.50
2023-02-09T09:44:41.411Z,102877.25
2023-02-09T09:47:16.736Z,102860.63
2023-02-09T09:49:43.903Z,102866.94
2023-02-09T09:52:31.145Z,102862.97
2023-02-09T09:55:01.344Z,102860.13
2023-02-09T09:57:31.336Z,102859.28
2023-02-09T10:00:02.162Z,102858.00
2023-02-09T10:02:33.983Z,102870.00
2023-02-09T10:05:17.225Z,102851.13
2023-02-09T10:07:51.655Z,102831.00
2023-02-09T10:10:33.831Z,102822.06
2023-02-09T10:13:07.471Z,102826.50
2023-02-09T10:15:36.584Z,102813.19
2023-02-09T10:18:14.228Z,102818.38
2023-02-09T10:20:48.814Z,102825.47
2023-02-09T10:23:37.597Z,102822.22
2023-02-09T10:26:23.997Z,102819.03
2023-02-09T10:28:55.893Z,102813.53
2023-02-09T10:31:34.623Z,102795.81
2023-02-09T10:34:17.442Z,102788.16
2023-02-09T10:36:54.080Z,102799.91
2023-02-09T10:39:23.124Z,102797.66
2023-02-09T10:41:55.801Z,102795.31
2023-02-09T10:44:30.684Z,102799.97
2023-02-09T10:47:19.827Z,102797.28
2023-02-09T10:50:17.678Z,102799.53
2023-02-09T10:53:21.262Z,102786.38
2023-02-09T10:55:48.647Z,102762.94
2023-02-09T10:58:27.763Z,102761.75
2023-02-09T11:01:09.750Z,102752.66
2023-02-09T11:03:57.084Z,102751.34
2023-02-09T11:06:24.571Z,102746.72
2023-02-09T11:09:15.813Z,102754.50
2023-02-09T11:11:44.927Z,102754.31
2023-02-09T11:14:20.212Z,102738.22
2023-02-09T11:17:18.160Z,102726.97
2023-02-09T11:20:12.185Z,102715.78
2023-02-09T11:23:12.210Z,102699.28
2023-02-09T11:26:08.647Z,102713.19
2023-02-09T11:28:56.683Z,102690.28
2023-02-09T11:32:05.010Z,102681.81
2023-02-09T11:34:47.083Z,102686.00
2023-02-09T11:38:02.246Z,102678.53
2023-02-09T11:40:45.281Z,102683.50
2023-02-09T11:43:37.680Z,102679.13
2023-02-09T11:46:29.017Z,102688.78
2023-02-09T11:49:02.613Z,102693.94
2023-02-09T11:51:34.547Z,102697.78
2023-02-09T11:54:26.716Z,102689.22
2023-02-09T11:57:00.465Z,102682.91
2023-02-09T11:59:40.405Z,102687.69
2023-02-09T12:02:32.067Z,102686.56
2023-02-09T12:05:02.104Z,102692.63
2023-02-09T12:08:17.095Z,102693.94
2023-02-09T12:11:28.148Z,102696.91
2023-02-09T12:14:34.932Z,102671.78
2023-02-09T12:17:23.095Z,102673.44
2023-02-09T12:20:01.856Z,102669.56
2023-02-09T12:22:35.283Z,102674.91
2023-02-09T12:25:42.407Z,102680.31
2023-02-09T12:28:09.453Z,102665.84
2023-02-09T12:30:42.601Z,102655.91
2023-02-09T12:33:24.588Z,102660.44
2023-02-09T12:36:09.631Z,102681.28
2023-02-09T12:39:04.731Z,102667.78
2023-02-09T12:41:52.251Z,102665.31
2023-02-09T12:44:19.761Z,102675.00
2023-02-09T12:46:55.137Z,102665.06
2023-02-09T12:49:33.362Z,102642.53
2023-02-09T12:52:03.438Z,102652.88
2023-02-09T12:54:55.294Z,102642.34
2023-02-09T12:57:22.253Z,102649.44
2023-02-09T12:59:52.561Z,102646.41
2023-02-09T13:02:50.771Z,102646.88
2023-02-09T13:05:28.711Z,102642.13
2023-02-09T13:08:15.678Z,102643.81
2023-02-09T13:10:57.833Z,102637.72
2023-02-09T13:13:59.145Z,102647.41
2023-02-09T13:17:10.360Z,102664.56
2023-02-09T13:20:10.428Z,102662.03
2023-02-09T13:23:12.707Z,102663.22
2023-02-09T13:25:40.790Z,102665.94
2023-02-09T13:28:19.896Z,102679.41
2023-02-09T13:30:47.437Z,102681.53
2023-02-09T13:33:44.300Z,102669.31
2023-02-09T13:36:35.558Z,102680.00
2023-02-09T13:39:08.093Z,102692.63
2023-02-09T13:41:40.446Z,102697.75
2023-02-09T13:44:43.761Z,102685.50
2023-02-09T13:47:15.555Z,102689.38
2023-02-09T13:49:55.693Z,102692.69
2023-02-09T13:52:23.701Z,102707.56
2023-02-09T13:54:52.659Z,102695.22
2023-02-09T13:57:35.773Z,102692.34
2023-02-09T14:00:22.920Z,102679.94
2023-02-09T14:02:56.399Z,102658.59
2023-02-09T14:05:41.430Z,102649.75
2023-02-09T14:08:11.425Z,102664.69
2023-02-09T14:10:41.520Z,102653.72
2023-02-09T14:13:26.655Z,102658.16
2023-02-09T14:16:08.690Z,102648.94
2023-02-09T14:18:54.949Z,102631.03
2023-02-09T14:21:29.573Z,102629.84
2023-02-09T14:23:57.042Z,102627.84
2023-02-09T14:26:36.212Z,102639.47
2023-02-09T14:29:30.650Z,102653.44
2023-02-09T14:32:31.965Z,102641.47
2023-02-09T14:35:21.078Z,102642.06
2023-02-09T14:37:50.042Z,102622.19
2023-02-09T14:40:28.331Z,102638.50
2023-02-09T14:43:27.483Z,102667.31
2023-02-09T14:46:01.122Z,102669.56
2023-02-09T14:48:31.592Z,102677.28
2023-02-09T14:51:04.497Z,102662.53
2023-02-09T14:53:33.343Z,102676.09
2023-02-09T14:56:00.303Z,102680.25
2023-02-09T14:58:29.655Z,102656.97
2023-02-09T15:01:00.555Z,102679.13
2023-02-09T15:03:28.016Z,102661.47
2023-02-09T15:06:02.701Z,102665.31
2023-02-09T15:08:34.715Z,102662.47
2023-02-09T15:11:24.408Z,102669.31
2023-02-09T15:13:57.871Z,102640.34
2023-02-09T15:16:25.003Z,102648.31
2023-02-09T15:18:51.910Z,102661.75
2023-02-09T15:21:18.752Z,102647.28
2023-02-09T15:23:45.772Z,102635.97
2023-02-09T15:26:17.711Z,102638.59
2023-02-09T15:28:44.731Z,102618.97
2023-02-09T15:31:15.714Z,102620.09
2023-02-09T15:33:43.325Z,102626.50
2023-02-09T15:36:19.846Z,102624.34
2023-02-09T15:38:47.166Z,102646.53
2023-02-09T15:41:35.042Z,102628.72
2023-02-09T15:44:44.493Z,102637.78
2023-02-09T15:47:29.938Z,102632.59
2023-02-09T15:49:56.909Z,102636.34
2023-02-09T15:52:23.928Z,102657.38
2023-02-09T15:54:52.805Z,102657.16
2023-02-09T15:57:19.796Z,102654.59
2023-02-09T15:59:48.272Z,102663.31
2023-02-09T16:02:19.290Z,102634.75
2023-02-09T16:04:47.742Z,102628.66
2023-02-09T16:07:24.963Z,102616.50
2023-02-09T16:09:52.441Z,102615.28
2023-02-09T16:12:19.506Z,102621.22
2023-02-09T16:14:46.536Z,102614.16
2023-02-09T16:17:13.595Z,102628.34
2023-02-09T16:19:40.494Z,102629.25
2023-02-09T16:22:07.667Z,102634.84
2023-02-09T16:24:45.196Z,102618.56
2023-02-09T16:27:21.838Z,102617.50
2023-02-09T16:29:48.983Z,102597.72
2023-02-09T16:32:20.238Z,102608.22
2023-02-09T16:34:47.335Z,102608.97
2023-02-09T16:37:25.578Z,102615.41
2023-02-09T16:39:53.034Z,102628.25
2023-02-09T16:42:20.223Z,102630.38
2023-02-09T16:44:47.194Z,102628.47
2023-02-09T16:47:28.525Z,102648.81
2023-02-09T16:50:11.861Z,102647.44
2023-02-09T16:52:42.262Z,102650.38
2023-02-09T16:55:31.971Z,102631.16
2023-02-09T16:58:03.318Z,102637.19
2023-02-09T17:00:37.129Z,102627.59
2023-02-09T17:03:20.038Z,102641.94
2023-02-09T17:05:50.586Z,102644.72
2023-02-09T17:08:21.881Z,102649.34
2023-02-09T17:10:52.952Z,102656.72
2023-02-09T17:13:21.519Z,102654.22
2023-02-09T17:15:54.009Z,102665.09
2023-02-09T17:18:42.199Z,102654.13
2023-02-09T17:21:20.025Z,102654.28
2023-02-09T17:23:47.089Z,102659.72
2023-02-09T17:26:14.489Z,102667.94
2023-02-09T17:28:43.084Z,102674.88
2023-02-09T17:31:43.728Z,102669.59
2023-02-09T17:34:17.853Z,102662.34
2023-02-09T17:36:44.967Z,102668.75
2023-02-09T17:39:12.306Z,102658.03
2023-02-09T17:41:44.816Z,102668.34
2023-02-09T17:44:43.698Z,102658.72
2023-02-09T17:47:18.189Z,102654.41
2023-02-09T17:49:45.257Z,102659.00
2023-02-09T17:52:19.780Z,102658.19
2023-02-09T17:54:47.705Z,102673.38
2023-02-09T17:57:17.161Z,102670.16
2023-02-09T17:59:45.922Z,102666.16
2023-02-09T18:02:19.631Z,102667.81
2023-02-09T18:04:46.897Z,102656.00
2023-02-09T18:07:20.014Z,102668.38
2023-02-09T18:09:46.925Z,102673.13
2023-02-09T18:12:26.427Z,102669.66
2023-02-09T18:14:53.579Z,102672.56
2023-02-09T18:17:20.581Z,102675.22
2023-02-09T18:19:47.605Z,102674.53
2023-02-09T18:22:17.186Z,102676.47
2023-02-09T18:24:44.168Z,102698.59
2023-02-09T18:27:20.245Z,102691.09
2023-02-09T18:30:13.910Z,102688.59
2023-02-09T18:32:41.269Z,102671.34
2023-02-09T18:35:12.969Z,102668.00
2023-02-09T18:37:39.947Z,102674.41
2023-02-09T18:40:07.118Z,102676.38
2023-02-09T18:42:34.347Z,102678.19
2023-02-09T18:45:01.523Z,102661.63
2023-02-09T18:47:28.489Z,102669.69
2023-02-09T18:49:56.711Z,102671.78
2023-02-09T18:52:26.839Z,102671.94
2023-02-09T18:54:53.965Z,102672.34
2023-02-09T18:57:20.865Z,102668.03
2023-02-09T18:59:48.001Z,102669.84
2023-02-09T19:02:15.772Z,102665.53
2023-02-09T19:04:43.716Z,102658.72
2023-02-09T19:07:12.323Z,102668.59
2023-02-09T19:09:40.389Z,102664.41
2023-02-09T19:12:07.535Z,102664.56
2023-02-09T19:14:41.040Z,102664.69
2023-02-09T19:17:14.791Z,102660.38
2023-02-09T19:19:42.418Z,102650.25
2023-02-09T19:22:10.782Z,102661.78
2023-02-09T19:24:37.815Z,102669.72
2023-02-09T19:27:06.691Z,102664.56
2023-02-09T19:29:34.086Z,102663.97
2023-02-09T19:32:02.920Z,102673.72
2023-02-09T19:34:38.736Z,102672.03
2023-02-09T19:37:07.823Z,102663.56
2023-02-09T19:39:38.273Z,102662.72
2023-02-09T19:42:06.213Z,102661.19
2023-02-09T19:44:35.040Z,102670.09
2023-02-09T19:47:02.010Z,102667.44
2023-02-09T19:49:29.369Z,102668.69
2023-02-09T19:51:56.417Z,102664.38
2023-02-09T19:54:23.463Z,102661.03
2023-02-09T19:56:50.427Z,102649.94
2023-02-09T19:59:17.607Z,102668.69
2023-02-09T20:01:44.581Z,102660.06
2023-02-09T20:04:11.484Z,102652.56
2023-02-09T20:06:38.473Z,102654.50
2023-02-09T20:09:05.503Z,102643.94
2023-02-09T20:11:33.435Z,102651.31
2023-02-09T20:16:32.652Z,102653.53
2023-02-09T20:18:59.616Z,102659.91
2023-02-09T20:21:26.704Z,102657.69
2023-02-09T20:23:56.194Z,102656.84
2023-02-09T20:26:29.704Z,102660.31
2023-02-09T20:28:58.075Z,102665.88
2023-02-09T20:31:29.760Z,102666.00
2023-02-09T20:33:56.866Z,102659.19
2023-02-09T20:36:25.320Z,102663.06
2023-02-09T20:38:52.658Z,102662.22
2023-02-09T20:41:19.714Z,102659.88
2023-02-09T20:44:25.445Z,102670.41
2023-02-09T20:46:58.080Z,102653.06
2023-02-09T20:49:29.858Z,102654.16
2023-02-09T20:51:58.060Z,102651.94
2023-02-09T20:54:25.197Z,102653.03
2023-02-09T20:56:52.220Z,102665.94
2023-02-09T20:59:19.320Z,102669.56
2023-02-09T21:01:46.315Z,102678.44
2023-02-09T21:04:13.316Z,102668.28
2023-02-09T21:06:40.369Z,102665.78
2023-02-09T21:09:11.361Z,102682.19
2023-02-09T21:11:38.328Z,102681.34
2023-02-09T21:14:05.339Z,102666.75
2023-02-09T21:16:32.696Z,102679.94
2023-02-09T21:19:00.101Z,102688.56
2023-02-09T21:21:27.455Z,102681.75
2023-02-09T21:24:18.947Z,102678.28
2023-02-09T21:26:46.266Z,102687.16
2023-02-09T21:29:14.565Z,102690.06
2023-02-09T21:31:41.716Z,102695.22
2023-02-09T21:34:16.168Z,102693.41
2023-02-09T21:36:43.803Z,102688.38
2023-02-09T21:39:10.784Z,102682.38
2023-02-09T21:41:56.104Z,102689.34
2023-02-09T21:44:23.420Z,102690.31
2023-02-09T21:46:51.150Z,102693.06
2023-02-09T21:49:18.158Z,102688.91
2023-02-09T21:51:45.253Z,102695.00
2023-02-09T21:54:17.478Z,102698.47
2023-02-09T21:56:44.865Z,102694.16
2023-02-09T21:59:11.880Z,102688.19
2023-02-09T22:01:39.482Z,102686.53
2023-02-09T22:04:06.629Z,102679.44
2023-02-09T22:06:33.733Z,102677.78
2023-02-09T22:09:02.838Z,102682.34
2023-02-09T22:11:30.109Z,102689.16
2023-02-09T22:13:57.160Z,102689.03
2023-02-09T22:16:24.589Z,102696.81
2023-02-09T22:18:52.117Z,102694.03
2023-02-09T22:21:19.238Z,102691.13
2023-02-09T22:23:46.206Z,102696.19
2023-02-09T22:26:13.963Z,102697.59
2023-02-09T22:28:43.425Z,102706.78
2023-02-09T22:31:16.916Z,102701.09
2023-02-09T22:33:44.682Z,102700.00
2023-02-09T22:36:18.097Z,102702.78
2023-02-09T22:38:45.838Z,102710.88
2023-02-09T22:41:22.884Z,102721.59
2023-02-09T22:44:03.375Z,102712.44
2023-02-09T22:46:34.384Z,102725.09
2023-02-09T22:49:05.802Z,102724.56
2023-02-09T22:51:35.291Z,102716.22
2023-02-09T22:54:03.898Z,102712.59
2023-02-09T22:56:31.268Z,102729.44
2023-02-09T22:59:00.658Z,102739.19
2023-02-09T23:01:29.712Z,102726.53
2023-02-09T23:03:57.098Z,102722.53
2023-02-09T23:06:27.277Z,102724.91
2023-02-09T23:09:07.258Z,102714.63
2023-02-09T23:11:35.235Z,102711.84
2023-02-09T23:14:10.961Z,102715.75
2023-02-09T23:16:40.750Z,102720.47
2023-02-09T23:19:12.773Z,102717.56
2023-02-09T23:21:44.432Z,102710.31
2023-02-09T23:24:12.875Z,102709.06
2023-02-09T23:26:40.305Z,102717.41
2023-02-09T23:29:12.826Z,102716.97
2023-02-09T23:31:40.440Z,102714.91
2023-02-09T23:34:07.578Z,102708.50
2023-02-09T23:36:35.554Z,102705.84
2023-02-09T23:39:05.792Z,102713.34
2023-02-09T23:41:34.294Z,102710.56
2023-02-09T23:44:03.601Z,102720.03
2023-02-09T23:46:30.743Z,102712.94
2023-02-09T23:48:58.425Z,102703.88
2023-02-09T23:51:30.818Z,102719.31
2023-02-09T23:54:01.294Z,102713.47
2023-02-09T23:56:31.879Z,102707.63
2023-02-09T23:58:58.891Z,102718.06
